This is the latest recevied weather packets stored in our database for station/object OK5TVR-14. If no packets are shown the sender has not sent any weather packets the latest 10 day(s).
| Time | Temp. | Humidity | Pressure | Rain* | Wind** | Luminosity | Snow |
|---|---|---|---|---|---|---|---|
| 1788377812 | 20° C | 63% | 1015.4 hPa | 0 mm | - | 0 W/m² | - |
| 1788376911 | 20.56° C | 62% | 1015.2 hPa | 0 mm | - | 0 W/m² | - |
| 1788376011 | 20.56° C | 61% | 1015.2 hPa | 0 mm | - | 0 W/m² | - |
| 1788374211 | 21.67° C | 56% | 1015.5 hPa | 0 mm | - | 0 W/m² | - |
| 1788372411 | 22.22° C | 53% | 1014.3 hPa | 0 mm | - | 0 W/m² | - |
| 1788370611 | 22.78° C | 50% | 1014.1 hPa | 0 mm | - | 0 W/m² | - |
| 1788369711 | 23.33° C | 47% | 1014 hPa | 0 mm | - | 0 W/m² | - |
| 1788368811 | 23.89° C | 46% | 1013.9 hPa | 0 mm | - | 0 W/m² | - |
| 1788367011 | 24.44° C | 45% | 1014 hPa | 0 mm | - | 0 W/m² | - |
| 1788366111 | 24.44° C | 45% | 1013.9 hPa | 0 mm | - | 0 W/m² | - |
| 1788362511 | 25° C | 41% | 1013.8 hPa | 0 mm | - | 0 W/m² | - |
| 1788359811 | 27.22° C | 37% | 1013.7 hPa | 0 mm | - | 3 W/m² | - |
| 1788358911 | 28.33° C | 36% | 1013.7 hPa | 0 mm | - | 0 W/m² | - |
| 1788358011 | 28.89° C | 38% | 1013.7 hPa | 0 mm | - | 0 W/m² | - |
| 1788356211 | 28.33° C | 37% | 1013.9 hPa | 0 mm | - | 0 W/m² | - |
| 1788355311 | 27.78° C | 39% | 1014 hPa | 0 mm | - | 0 W/m² | - |
| 1788354411 | 27.22° C | 39% | 1014.1 hPa | 0 mm | - | 0 W/m² | - |
| 1788352611 | 25.56° C | 43% | 1014.8 hPa | 0 mm | - | 0 W/m² | - |
| 1788351711 | 24.44° C | 48% | 1015.1 hPa | 0 mm | - | 0 W/m² | - |
| 1788350811 | 23.89° C | 48% | 1015.2 hPa | 0 mm | - | 0 W/m² | - |
| 1788349011 | 24.44° C | 49% | 1015.2 hPa | 0 mm | - | 0 W/m² | - |
| 1788348111 | 25° C | 48% | 1015.2 hPa | 0 mm | - | 0 W/m² | - |
| 1788347211 | 24.44° C | 51% | 1015.5 hPa | 0 mm | - | 0 W/m² | - |
| 1788346311 | 24.44° C | 51% | 1015.6 hPa | 0 mm | - | 0 W/m² | - |
| 1788345411 | 23.89° C | 51% | 1015.9 hPa | 0 mm | - | 0 W/m² | - |
* Rain latest hour (hover to see other rain measurements)
** Current wind speed in m/s (hover to see current wind gust speed)